sensor_id;sensor_type;location;lat;lon;timestamp;pressure;altitude;pressure_sealevel;temperature;humidity
83492;BME280;73661;56.120;12.302;2024-02-28T00:01:52;101820.53;;;11.73;42.61
83492;BME280;73661;56.120;12.302;2024-02-28T00:04:19;101820.16;;;11.53;42.47
83492;BME280;73661;56.120;12.302;2024-02-28T00:06:45;101819.97;;;11.44;42.61
83492;BME280;73661;56.120;12.302;2024-02-28T00:09:13;101810.25;;;11.37;42.99
83492;BME280;73661;56.120;12.302;2024-02-28T00:11:46;101819.72;;;11.76;42.12
83492;BME280;73661;56.120;12.302;2024-02-28T00:14:13;101819.91;;;11.41;42.33
83492;BME280;73661;56.120;12.302;2024-02-28T00:16:43;101818.88;;;11.33;42.96
83492;BME280;73661;56.120;12.302;2024-02-28T00:19:09;101813.78;;;11.40;42.88
83492;BME280;73661;56.120;12.302;2024-02-28T00:21:36;101816.44;;;11.42;43.18
83492;BME280;73661;56.120;12.302;2024-02-28T00:24:02;101814.47;;;10.91;43.43
83492;BME280;73661;56.120;12.302;2024-02-28T00:26:28;101818.72;;;11.27;43.28
83492;BME280;73661;56.120;12.302;2024-02-28T00:28:54;101815.25;;;10.87;43.99
83492;BME280;73661;56.120;12.302;2024-02-28T00:31:20;101811.22;;;11.03;43.28
83492;BME280;73661;56.120;12.302;2024-02-28T00:33:47;101806.09;;;11.06;43.98
83492;BME280;73661;56.120;12.302;2024-02-28T00:36:13;101805.78;;;11.33;43.86
83492;BME280;73661;56.120;12.302;2024-02-28T00:38:39;101800.81;;;11.45;43.11
83492;BME280;73661;56.120;12.302;2024-02-28T00:41:05;101799.28;;;11.12;43.62
83492;BME280;73661;56.120;12.302;2024-02-28T00:43:30;101794.63;;;10.99;43.71
83492;BME280;73661;56.120;12.302;2024-02-28T00:45:56;101789.28;;;11.35;43.43
83492;BME280;73661;56.120;12.302;2024-02-28T00:48:23;101797.81;;;11.27;43.18
83492;BME280;73661;56.120;12.302;2024-02-28T00:50:49;101801.66;;;11.03;43.78
83492;BME280;73661;56.120;12.302;2024-02-28T00:53:15;101794.00;;;10.72;44.91
83492;BME280;73661;56.120;12.302;2024-02-28T00:55:40;101802.59;;;11.05;43.72
83492;BME280;73661;56.120;12.302;2024-02-28T00:58:06;101794.53;;;10.96;44.22
83492;BME280;73661;56.120;12.302;2024-02-28T01:00:32;101789.63;;;10.71;45.11
83492;BME280;73661;56.120;12.302;2024-02-28T01:02:57;101791.28;;;10.67;45.14
83492;BME280;73661;56.120;12.302;2024-02-28T01:05:24;101795.38;;;11.36;43.68
83492;BME280;73661;56.120;12.302;2024-02-28T01:07:49;101798.22;;;11.04;43.79
83492;BME280;73661;56.120;12.302;2024-02-28T01:10:15;101794.59;;;10.24;45.41
83492;BME280;73661;56.120;12.302;2024-02-28T01:12:41;101789.53;;;11.05;44.30
83492;BME280;73661;56.120;12.302;2024-02-28T01:15:07;101792.00;;;10.98;44.24
83492;BME280;73661;56.120;12.302;2024-02-28T01:17:33;101790.84;;;11.26;43.88
83492;BME280;73661;56.120;12.302;2024-02-28T01:19:59;101788.94;;;10.78;45.37
83492;BME280;73661;56.120;12.302;2024-02-28T01:22:25;101785.13;;;10.63;45.59
83492;BME280;73661;56.120;12.302;2024-02-28T01:24:51;101779.53;;;10.48;45.66
83492;BME280;73661;56.120;12.302;2024-02-28T01:27:16;101788.06;;;9.75;47.15
83492;BME280;73661;56.120;12.302;2024-02-28T01:29:42;101774.81;;;10.00;46.58
83492;BME280;73661;56.120;12.302;2024-02-28T01:32:08;101782.41;;;10.59;46.12
83492;BME280;73661;56.120;12.302;2024-02-28T01:34:33;101776.44;;;10.28;46.40
83492;BME280;73661;56.120;12.302;2024-02-28T01:36:59;101778.13;;;10.62;45.74
83492;BME280;73661;56.120;12.302;2024-02-28T01:39:25;101785.63;;;10.49;45.92
83492;BME280;73661;56.120;12.302;2024-02-28T01:41:54;101771.38;;;10.71;45.36
83492;BME280;73661;56.120;12.302;2024-02-28T01:44:21;101781.06;;;10.05;46.75
83492;BME280;73661;56.120;12.302;2024-02-28T01:46:47;101780.50;;;10.17;46.72
83492;BME280;73661;56.120;12.302;2024-02-28T01:49:13;101764.88;;;10.55;45.85
83492;BME280;73661;56.120;12.302;2024-02-28T01:51:41;101775.16;;;10.13;46.78
83492;BME280;73661;56.120;12.302;2024-02-28T01:54:08;101779.53;;;9.49;48.33
83492;BME280;73661;56.120;12.302;2024-02-28T01:56:34;101775.13;;;9.46;48.17
83492;BME280;73661;56.120;12.302;2024-02-28T01:59:00;101774.78;;;9.04;49.62
83492;BME280;73661;56.120;12.302;2024-02-28T02:01:27;101785.31;;;9.37;48.43
83492;BME280;73661;56.120;12.302;2024-02-28T02:03:53;101780.06;;;10.35;46.71
83492;BME280;73661;56.120;12.302;2024-02-28T02:06:20;101770.34;;;10.28;46.14
83492;BME280;73661;56.120;12.302;2024-02-28T02:08:46;101769.22;;;9.85;46.97
83492;BME280;73661;56.120;12.302;2024-02-28T02:11:15;101767.84;;;9.99;46.90
83492;BME280;73661;56.120;12.302;2024-02-28T02:13:51;101755.28;;;10.18;46.53
83492;BME280;73661;56.120;12.302;2024-02-28T02:16:18;101761.28;;;9.80;47.36
83492;BME280;73661;56.120;12.302;2024-02-28T02:18:44;101762.81;;;8.82;48.99
83492;BME280;73661;56.120;12.302;2024-02-28T02:21:13;101763.78;;;9.14;48.69
83492;BME280;73661;56.120;12.302;2024-02-28T02:23:41;101764.53;;;9.72;48.20
83492;BME280;73661;56.120;12.302;2024-02-28T02:26:07;101764.41;;;9.67;47.38
83492;BME280;73661;56.120;12.302;2024-02-28T02:28:33;101755.69;;;9.35;48.77
83492;BME280;73661;56.120;12.302;2024-02-28T02:30:59;101761.22;;;9.46;48.37
83492;BME280;73661;56.120;12.302;2024-02-28T02:33:24;101759.22;;;9.69;47.81
83492;BME280;73661;56.120;12.302;2024-02-28T02:35:52;101753.66;;;9.88;47.34
83492;BME280;73661;56.120;12.302;2024-02-28T02:38:17;101755.91;;;9.74;47.25
83492;BME280;73661;56.120;12.302;2024-02-28T02:40:43;101746.41;;;9.13;48.48
83492;BME280;73661;56.120;12.302;2024-02-28T02:43:09;101739.88;;;9.94;47.03
83492;BME280;73661;56.120;12.302;2024-02-28T02:45:35;101747.38;;;9.48;48.14
83492;BME280;73661;56.120;12.302;2024-02-28T02:48:00;101754.78;;;9.65;47.95
83492;BME280;73661;56.120;12.302;2024-02-28T02:50:26;101749.06;;;9.46;47.82
83492;BME280;73661;56.120;12.302;2024-02-28T02:52:52;101747.75;;;9.00;48.98
83492;BME280;73661;56.120;12.302;2024-02-28T02:55:17;101743.47;;;9.97;47.51
83492;BME280;73661;56.120;12.302;2024-02-28T02:57:43;101750.88;;;9.82;46.93
83492;BME280;73661;56.120;12.302;2024-02-28T03:00:09;101744.09;;;9.24;48.07
83492;BME280;73661;56.120;12.302;2024-02-28T03:02:35;101747.00;;;9.99;47.01
83492;BME280;73661;56.120;12.302;2024-02-28T03:05:04;101757.63;;;10.08;46.76
83492;BME280;73661;56.120;12.302;2024-02-28T03:07:30;101746.88;;;9.30;48.55
83492;BME280;73661;56.120;12.302;2024-02-28T03:09:55;101741.84;;;10.02;46.83
83492;BME280;73661;56.120;12.302;2024-02-28T03:12:21;101751.06;;;10.23;47.13
83492;BME280;73661;56.120;12.302;2024-02-28T03:14:48;101748.03;;;9.73;48.10
83492;BME280;73661;56.120;12.302;2024-02-28T03:17:14;101742.22;;;8.34;50.97
83492;BME280;73661;56.120;12.302;2024-02-28T03:19:41;101743.31;;;8.14;51.33
83492;BME280;73661;56.120;12.302;2024-02-28T03:22:07;101748.28;;;8.89;49.41
83492;BME280;73661;56.120;12.302;2024-02-28T03:24:33;101752.84;;;9.58;48.05
83492;BME280;73661;56.120;12.302;2024-02-28T03:27:02;101745.75;;;9.52;47.28
83492;BME280;73661;56.120;12.302;2024-02-28T03:29:28;101751.22;;;9.63;46.68
83492;BME280;73661;56.120;12.302;2024-02-28T03:31:54;101748.19;;;9.79;46.21
83492;BME280;73661;56.120;12.302;2024-02-28T03:34:19;101750.34;;;9.95;46.38
83492;BME280;73661;56.120;12.302;2024-02-28T03:36:45;101747.00;;;9.99;46.21
83492;BME280;73661;56.120;12.302;2024-02-28T03:39:11;101741.44;;;9.87;46.62
83492;BME280;73661;56.120;12.302;2024-02-28T03:41:38;101740.59;;;9.88;46.64
83492;BME280;73661;56.120;12.302;2024-02-28T03:44:04;101739.63;;;10.18;45.68
83492;BME280;73661;56.120;12.302;2024-02-28T03:46:30;101727.41;;;10.51;44.88
83492;BME280;73661;56.120;12.302;2024-02-28T03:48:56;101739.94;;;11.08;43.40
83492;BME280;73661;56.120;12.302;2024-02-28T03:51:21;101740.16;;;10.77;43.81
83492;BME280;73661;56.120;12.302;2024-02-28T03:53:47;101736.75;;;10.07;44.71
83492;BME280;73661;56.120;12.302;2024-02-28T03:56:13;101736.50;;;10.31;44.16
83492;BME280;73661;56.120;12.302;2024-02-28T03:58:40;101739.22;;;10.02;44.28
83492;BME280;73661;56.120;12.302;2024-02-28T04:01:05;101732.63;;;10.51;43.81
83492;BME280;73661;56.120;12.302;2024-02-28T04:03:31;101732.22;;;10.34;44.16
83492;BME280;73661;56.120;12.302;2024-02-28T04:05:57;101727.13;;;10.78;43.23
83492;BME280;73661;56.120;12.302;2024-02-28T04:08:23;101734.13;;;11.22;42.14
83492;BME280;73661;56.120;12.302;2024-02-28T04:10:49;101719.28;;;11.19;41.77
83492;BME280;73661;56.120;12.302;2024-02-28T04:13:16;101732.50;;;10.84;43.20
83492;BME280;73661;56.120;12.302;2024-02-28T04:15:42;101728.06;;;10.82;43.47
83492;BME280;73661;56.120;12.302;2024-02-28T04:18:08;101723.09;;;10.94;42.76
83492;BME280;73661;56.120;12.302;2024-02-28T04:20:33;101730.78;;;11.29;42.15
83492;BME280;73661;56.120;12.302;2024-02-28T04:22:59;101729.78;;;10.81;43.10
83492;BME280;73661;56.120;12.302;2024-02-28T04:25:24;101727.03;;;10.74;42.98
83492;BME280;73661;56.120;12.302;2024-02-28T04:27:50;101727.78;;;10.70;43.24
83492;BME280;73661;56.120;12.302;2024-02-28T04:30:16;101727.41;;;10.51;43.25
83492;BME280;73661;56.120;12.302;2024-02-28T04:32:42;101728.47;;;10.61;43.87
83492;BME280;73661;56.120;12.302;2024-02-28T04:35:07;101721.91;;;10.78;43.11
83492;BME280;73661;56.120;12.302;2024-02-28T04:37:33;101721.03;;;10.40;43.75
83492;BME280;73661;56.120;12.302;2024-02-28T04:40:00;101728.91;;;11.23;42.08
83492;BME280;73661;56.120;12.302;2024-02-28T04:42:26;101727.25;;;10.45;43.74
83492;BME280;73661;56.120;12.302;2024-02-28T04:44:52;101720.66;;;11.45;42.11
83492;BME280;73661;56.120;12.302;2024-02-28T04:47:17;101721.97;;;10.83;42.96
83492;BME280;73661;56.120;12.302;2024-02-28T04:49:43;101721.81;;;10.74;43.62
83492;BME280;73661;56.120;12.302;2024-02-28T04:52:09;101716.16;;;10.96;43.03
83492;BME280;73661;56.120;12.302;2024-02-28T04:54:34;101710.06;;;10.96;43.52
83492;BME280;73661;56.120;12.302;2024-02-28T04:57:00;101707.63;;;10.62;44.39
83492;BME280;73661;56.120;12.302;2024-02-28T04:59:26;101710.03;;;10.94;43.81
83492;BME280;73661;56.120;12.302;2024-02-28T05:01:52;101709.97;;;11.35;43.27
83492;BME280;73661;56.120;12.302;2024-02-28T05:04:17;101708.66;;;11.11;43.02
83492;BME280;73661;56.120;12.302;2024-02-28T05:06:44;101716.69;;;11.21;43.09
83492;BME280;73661;56.120;12.302;2024-02-28T05:09:10;101709.78;;;10.82;43.49
83492;BME280;73661;56.120;12.302;2024-02-28T05:11:36;101699.91;;;10.67;44.29
83492;BME280;73661;56.120;12.302;2024-02-28T05:14:01;101698.00;;;11.01;43.16
83492;BME280;73661;56.120;12.302;2024-02-28T05:16:27;101703.06;;;10.93;43.49
83492;BME280;73661;56.120;12.302;2024-02-28T05:18:53;101692.94;;;10.68;43.28
83492;BME280;73661;56.120;12.302;2024-02-28T05:21:19;101687.91;;;10.01;45.01
83492;BME280;73661;56.120;12.302;2024-02-28T05:23:45;101696.81;;;10.46;44.27
83492;BME280;73661;56.120;12.302;2024-02-28T05:26:11;101702.25;;;10.19;44.61
83492;BME280;73661;56.120;12.302;2024-02-28T05:28:36;101711.47;;;9.70;45.42
83492;BME280;73661;56.120;12.302;2024-02-28T05:31:23;101715.09;;;9.12;47.76
83492;BME280;73661;56.120;12.302;2024-02-28T05:33:55;101712.34;;;9.37;46.99
83492;BME280;73661;56.120;12.302;2024-02-28T05:36:26;101712.09;;;8.98;48.46
83492;BME280;73661;56.120;12.302;2024-02-28T05:38:53;101720.28;;;8.82;49.38
83492;BME280;73661;56.120;12.302;2024-02-28T05:41:20;101715.09;;;9.12;48.92
83492;BME280;73661;56.120;12.302;2024-02-28T05:43:47;101706.28;;;9.71;47.03
83492;BME280;73661;56.120;12.302;2024-02-28T05:46:13;101703.34;;;9.58;47.05
83492;BME280;73661;56.120;12.302;2024-02-28T05:48:44;101713.50;;;9.48;47.58
83492;BME280;73661;56.120;12.302;2024-02-28T05:51:12;101706.66;;;9.20;48.56
83492;BME280;73661;56.120;12.302;2024-02-28T05:53:41;101708.09;;;9.41;48.39
83492;BME280;73661;56.120;12.302;2024-02-28T05:56:09;101706.47;;;9.44;48.40
83492;BME280;73661;56.120;12.302;2024-02-28T05:58:44;101701.97;;;8.77;49.31
83492;BME280;73661;56.120;12.302;2024-02-28T06:01:10;101695.75;;;8.73;50.29
83492;BME280;73661;56.120;12.302;2024-02-28T06:03:37;101706.38;;;9.43;48.33
83492;BME280;73661;56.120;12.302;2024-02-28T06:06:03;101703.78;;;8.51;50.97
83492;BME280;73661;56.120;12.302;2024-02-28T06:08:33;101712.78;;;8.08;52.42
83492;BME280;73661;56.120;12.302;2024-02-28T06:10:59;101702.19;;;8.29;51.26
83492;BME280;73661;56.120;12.302;2024-02-28T06:13:27;101705.06;;;8.37;51.93
83492;BME280;73661;56.120;12.302;2024-02-28T06:15:53;101716.78;;;9.10;49.59
83492;BME280;73661;56.120;12.302;2024-02-28T06:18:19;101717.78;;;9.15;49.27
83492;BME280;73661;56.120;12.302;2024-02-28T06:20:45;101711.94;;;8.92;49.73
83492;BME280;73661;56.120;12.302;2024-02-28T06:23:10;101717.22;;;9.25;48.77
83492;BME280;73661;56.120;12.302;2024-02-28T06:25:36;101718.97;;;9.26;49.07
83492;BME280;73661;56.120;12.302;2024-02-28T06:28:02;101722.56;;;8.99;49.60
83492;BME280;73661;56.120;12.302;2024-02-28T06:30:31;101709.44;;;8.38;51.36
83492;BME280;73661;56.120;12.302;2024-02-28T06:32:59;101720.88;;;9.01;50.16
83492;BME280;73661;56.120;12.302;2024-02-28T06:35:25;101722.59;;;8.71;50.63
83492;BME280;73661;56.120;12.302;2024-02-28T06:37:51;101732.13;;;8.70;51.41
83492;BME280;73661;56.120;12.302;2024-02-28T06:40:17;101734.66;;;8.69;50.80
83492;BME280;73661;56.120;12.302;2024-02-28T06:42:44;101735.56;;;8.99;50.69
83492;BME280;73661;56.120;12.302;2024-02-28T06:45:09;101729.09;;;8.85;50.67
83492;BME280;73661;56.120;12.302;2024-02-28T06:47:35;101731.94;;;8.64;51.29
83492;BME280;73661;56.120;12.302;2024-02-28T06:50:06;101733.78;;;8.68;51.18
83492;BME280;73661;56.120;12.302;2024-02-28T06:52:33;101735.97;;;8.55;52.21
83492;BME280;73661;56.120;12.302;2024-02-28T06:55:00;101733.19;;;8.77;51.44
83492;BME280;73661;56.120;12.302;2024-02-28T06:57:28;101737.09;;;8.91;51.24
83492;BME280;73661;56.120;12.302;2024-02-28T06:59:54;101740.66;;;9.25;50.23
83492;BME280;73661;56.120;12.302;2024-02-28T07:02:20;101747.84;;;9.34;50.63
83492;BME280;73661;56.120;12.302;2024-02-28T07:04:46;101753.00;;;9.32;50.72
83492;BME280;73661;56.120;12.302;2024-02-28T07:07:11;101753.69;;;8.39;52.48
83492;BME280;73661;56.120;12.302;2024-02-28T07:09:38;101762.34;;;9.24;50.60
83492;BME280;73661;56.120;12.302;2024-02-28T07:12:06;101761.69;;;9.31;50.79
83492;BME280;73661;56.120;12.302;2024-02-28T07:14:31;101755.59;;;8.72;51.53
83492;BME280;73661;56.120;12.302;2024-02-28T07:16:57;101771.34;;;9.05;51.55
83492;BME280;73661;56.120;12.302;2024-02-28T07:19:23;101763.00;;;9.48;51.16
83492;BME280;73661;56.120;12.302;2024-02-28T07:21:49;101768.91;;;9.73;50.23
83492;BME280;73661;56.120;12.302;2024-02-28T07:24:14;101769.63;;;9.06;50.88
83492;BME280;73661;56.120;12.302;2024-02-28T07:26:40;101768.22;;;9.48;51.22
83492;BME280;73661;56.120;12.302;2024-02-28T07:29:06;101772.16;;;9.34;50.94
83492;BME280;73661;56.120;12.302;2024-02-28T07:31:32;101770.16;;;8.38;53.55
83492;BME280;73661;56.120;12.302;2024-02-28T07:33:58;101770.78;;;8.58;52.62
83492;BME280;73661;56.120;12.302;2024-02-28T07:36:24;101772.59;;;8.61;53.16
83492;BME280;73661;56.120;12.302;2024-02-28T07:38:49;101771.00;;;8.66;53.24
83492;BME280;73661;56.120;12.302;2024-02-28T07:41:15;101777.31;;;9.02;52.34
83492;BME280;73661;56.120;12.302;2024-02-28T07:43:44;101780.84;;;8.22;54.36
83492;BME280;73661;56.120;12.302;2024-02-28T07:46:10;101778.97;;;8.99;52.90
83492;BME280;73661;56.120;12.302;2024-02-28T07:48:37;101766.38;;;8.84;52.87
83492;BME280;73661;56.120;12.302;2024-02-28T07:51:09;101767.13;;;8.80;52.41
83492;BME280;73661;56.120;12.302;2024-02-28T07:53:35;101770.03;;;8.62;53.81
83492;BME280;73661;56.120;12.302;2024-02-28T07:56:01;101772.31;;;8.52;54.13
83492;BME280;73661;56.120;12.302;2024-02-28T07:58:27;101776.69;;;8.81;53.66
83492;BME280;73661;56.120;12.302;2024-02-28T08:00:53;101780.50;;;8.92;53.45
83492;BME280;73661;56.120;12.302;2024-02-28T08:03:19;101784.31;;;9.04;52.61
83492;BME280;73661;56.120;12.302;2024-02-28T08:05:46;101786.53;;;9.20;52.72
83492;BME280;73661;56.120;12.302;2024-02-28T08:08:14;101780.47;;;9.21;51.82
83492;BME280;73661;56.120;12.302;2024-02-28T08:10:40;101779.13;;;9.04;53.10
83492;BME280;73661;56.120;12.302;2024-02-28T08:13:05;101788.38;;;9.54;52.20
83492;BME280;73661;56.120;12.302;2024-02-28T08:15:31;101785.19;;;9.34;52.33
83492;BME280;73661;56.120;12.302;2024-02-28T08:17:57;101790.50;;;10.35;49.62
83492;BME280;73661;56.120;12.302;2024-02-28T08:20:24;101786.44;;;10.12;50.07
83492;BME280;73661;56.120;12.302;2024-02-28T08:22:49;101800.13;;;9.40;51.75
83492;BME280;73661;56.120;12.302;2024-02-28T08:25:18;101796.88;;;9.48;51.60
83492;BME280;73661;56.120;12.302;2024-02-28T08:27:44;101791.78;;;9.83;51.71
83492;BME280;73661;56.120;12.302;2024-02-28T08:30:10;101797.13;;;9.26;52.71
83492;BME280;73661;56.120;12.302;2024-02-28T08:32:36;101796.06;;;9.19;52.58
83492;BME280;73661;56.120;12.302;2024-02-28T08:35:01;101790.31;;;8.72;53.90
83492;BME280;73661;56.120;12.302;2024-02-28T08:37:27;101789.25;;;9.86;51.25
83492;BME280;73661;56.120;12.302;2024-02-28T08:39:54;101787.50;;;10.20;50.94
83492;BME280;73661;56.120;12.302;2024-02-28T08:42:25;101783.78;;;10.10;50.79
83492;BME280;73661;56.120;12.302;2024-02-28T08:44:52;101784.38;;;9.67;51.45
83492;BME280;73661;56.120;12.302;2024-02-28T08:47:17;101785.47;;;9.43;52.17
83492;BME280;73661;56.120;12.302;2024-02-28T08:49:44;101785.97;;;9.62;51.55
83492;BME280;73661;56.120;12.302;2024-02-28T08:52:10;101786.16;;;9.08;51.77
83492;BME280;73661;56.120;12.302;2024-02-28T08:54:36;101793.72;;;9.90;50.62
83492;BME280;73661;56.120;12.302;2024-02-28T08:57:01;101787.59;;;9.26;51.73
83492;BME280;73661;56.120;12.302;2024-02-28T08:59:27;101790.44;;;9.36;52.04
83492;BME280;73661;56.120;12.302;2024-02-28T09:01:53;101791.50;;;9.74;51.37
83492;BME280;73661;56.120;12.302;2024-02-28T09:04:18;101788.63;;;9.96;51.25
83492;BME280;73661;56.120;12.302;2024-02-28T09:06:44;101789.47;;;10.28;50.15
83492;BME280;73661;56.120;12.302;2024-02-28T09:09:10;101786.81;;;9.61;51.72
83492;BME280;73661;56.120;12.302;2024-02-28T09:11:35;101787.19;;;9.74;51.71
83492;BME280;73661;56.120;12.302;2024-02-28T09:14:01;101780.09;;;9.37;51.72
83492;BME280;73661;56.120;12.302;2024-02-28T09:16:27;101791.59;;;9.45;52.11
83492;BME280;73661;56.120;12.302;2024-02-28T09:18:52;101787.97;;;10.03;50.57
83492;BME280;73661;56.120;12.302;2024-02-28T09:21:18;101789.91;;;9.79;51.23
83492;BME280;73661;56.120;12.302;2024-02-28T09:23:44;101787.81;;;10.30;49.78
83492;BME280;73661;56.120;12.302;2024-02-28T09:26:10;101786.78;;;9.29;51.75
83492;BME280;73661;56.120;12.302;2024-02-28T09:28:36;101789.25;;;9.54;51.77
83492;BME280;73661;56.120;12.302;2024-02-28T09:31:01;101786.09;;;9.99;51.00
83492;BME280;73661;56.120;12.302;2024-02-28T09:33:27;101790.41;;;9.97;50.26
83492;BME280;73661;56.120;12.302;2024-02-28T09:35:53;101787.50;;;10.20;49.86
83492;BME280;73661;56.120;12.302;2024-02-28T09:38:19;101785.59;;;10.13;49.77
83492;BME280;73661;56.120;12.302;2024-02-28T09:40:48;101781.59;;;9.92;51.37
83492;BME280;73661;56.120;12.302;2024-02-28T09:43:40;101784.69;;;10.12;50.20
83492;BME280;73661;56.120;12.302;2024-02-28T09:46:08;101783.97;;;9.51;51.77
83492;BME280;73661;56.120;12.302;2024-02-28T09:48:41;101786.22;;;9.39;52.01
83492;BME280;73661;56.120;12.302;2024-02-28T09:51:08;101797.41;;;9.98;51.30
83492;BME280;73661;56.120;12.302;2024-02-28T09:53:38;101799.56;;;8.63;54.21
83492;BME280;73661;56.120;12.302;2024-02-28T09:56:06;101798.00;;;8.96;54.07
83492;BME280;73661;56.120;12.302;2024-02-28T09:58:33;101790.41;;;9.04;53.61
83492;BME280;73661;56.120;12.302;2024-02-28T10:01:02;101802.22;;;9.51;52.92
83492;BME280;73661;56.120;12.302;2024-02-28T10:03:30;101802.44;;;9.92;51.83
83492;BME280;73661;56.120;12.302;2024-02-28T10:05:57;101797.84;;;9.50;52.55
83492;BME280;73661;56.120;12.302;2024-02-28T10:08:23;101806.00;;;9.33;53.62
83492;BME280;73661;56.120;12.302;2024-02-28T10:10:49;101808.22;;;9.80;51.96
83492;BME280;73661;56.120;12.302;2024-02-28T10:13:17;101809.88;;;9.77;52.52
83492;BME280;73661;56.120;12.302;2024-02-28T10:15:44;101815.97;;;10.10;51.81
83492;BME280;73661;56.120;12.302;2024-02-28T10:18:10;101810.38;;;9.64;52.55
83492;BME280;73661;56.120;12.302;2024-02-28T10:20:36;101809.19;;;9.52;52.89
83492;BME280;73661;56.120;12.302;2024-02-28T10:23:05;101814.72;;;10.29;51.18
83492;BME280;73661;56.120;12.302;2024-02-28T10:25:32;101818.84;;;9.88;51.13
83492;BME280;73661;56.120;12.302;2024-02-28T10:28:01;101812.03;;;9.62;52.92
83492;BME280;73661;56.120;12.302;2024-02-28T10:30:27;101810.53;;;10.03;52.43
83492;BME280;73661;56.120;12.302;2024-02-28T10:32:53;101814.91;;;9.71;53.59
83492;BME280;73661;56.120;12.302;2024-02-28T10:35:20;101805.66;;;9.50;54.16
83492;BME280;73661;56.120;12.302;2024-02-28T10:37:47;101814.28;;;10.13;53.12
83492;BME280;73661;56.120;12.302;2024-02-28T10:40:17;101808.06;;;10.07;52.89
83492;BME280;73661;56.120;12.302;2024-02-28T10:42:43;101799.72;;;9.26;54.42
83492;BME280;73661;56.120;12.302;2024-02-28T10:45:12;101807.81;;;9.05;55.23
83492;BME280;73661;56.120;12.302;2024-02-28T10:47:39;101811.72;;;9.82;54.71
83492;BME280;73661;56.120;12.302;2024-02-28T10:50:05;101808.59;;;9.33;55.77
83492;BME280;73661;56.120;12.302;2024-02-28T10:52:33;101808.03;;;10.39;52.94
83492;BME280;73661;56.120;12.302;2024-02-28T10:55:02;101804.59;;;10.08;53.88
83492;BME280;73661;56.120;12.302;2024-02-28T10:57:29;101803.66;;;9.73;54.14
83492;BME280;73661;56.120;12.302;2024-02-28T10:59:57;101810.63;;;9.73;53.60
83492;BME280;73661;56.120;12.302;2024-02-28T11:02:26;101809.84;;;9.45;54.71
83492;BME280;73661;56.120;12.302;2024-02-28T11:04:52;101808.53;;;9.30;55.13
83492;BME280;73661;56.120;12.302;2024-02-28T11:07:21;101815.25;;;9.83;54.13
83492;BME280;73661;56.120;12.302;2024-02-28T11:09:47;101800.25;;;9.76;55.43
83492;BME280;73661;56.120;12.302;2024-02-28T11:12:33;101807.44;;;9.83;54.92
83492;BME280;73661;56.120;12.302;2024-02-28T11:15:03;101806.81;;;9.01;56.85
83492;BME280;73661;56.120;12.302;2024-02-28T11:17:32;101808.00;;;9.11;57.37
83492;BME280;73661;56.120;12.302;2024-02-28T11:19:59;101806.53;;;8.64;58.33
83492;BME280;73661;56.120;12.302;2024-02-28T11:22:28;101807.28;;;8.88;57.91
83492;BME280;73661;56.120;12.302;2024-02-28T11:24:55;101807.50;;;8.67;58.20
83492;BME280;73661;56.120;12.302;2024-02-28T11:27:21;101804.53;;;9.42;56.89
83492;BME280;73661;56.120;12.302;2024-02-28T11:29:48;101799.94;;;9.04;58.21
83492;BME280;73661;56.120;12.302;2024-02-28T11:32:15;101797.78;;;9.19;58.00
83492;BME280;73661;56.120;12.302;2024-02-28T11:34:42;101809.25;;;8.68;58.80
83492;BME280;73661;56.120;12.302;2024-02-28T11:37:09;101800.38;;;9.49;57.41
83492;BME280;73661;56.120;12.302;2024-02-28T11:39:35;101808.72;;;9.67;55.63
83492;BME280;73661;56.120;12.302;2024-02-28T11:42:17;101807.31;;;10.46;55.19
83492;BME280;73661;56.120;12.302;2024-02-28T11:44:43;101800.00;;;9.67;55.78
83492;BME280;73661;56.120;12.302;2024-02-28T11:47:09;101801.16;;;9.45;56.42
83492;BME280;73661;56.120;12.302;2024-02-28T11:49:38;101807.28;;;10.10;54.98
83492;BME280;73661;56.120;12.302;2024-02-28T11:52:05;101799.38;;;10.08;55.50
83492;BME280;73661;56.120;12.302;2024-02-28T11:54:31;101802.41;;;9.29;56.19
83492;BME280;73661;56.120;12.302;2024-02-28T11:56:57;101787.88;;;9.07;56.59
83492;BME280;73661;56.120;12.302;2024-02-28T11:59:23;101780.81;;;8.74;57.68
83492;BME280;73661;56.120;12.302;2024-02-28T12:01:49;101797.13;;;9.26;56.86
83492;BME280;73661;56.120;12.302;2024-02-28T12:04:16;101794.47;;;9.54;55.41
83492;BME280;73661;56.120;12.302;2024-02-28T12:06:42;101781.22;;;9.78;54.58
83492;BME280;73661;56.120;12.302;2024-02-28T12:09:11;101790.25;;;9.60;55.48
83492;BME280;73661;56.120;12.302;2024-02-28T12:11:40;101790.94;;;9.52;55.74
83492;BME280;73661;56.120;12.302;2024-02-28T12:14:09;101778.81;;;8.94;56.80
83492;BME280;73661;56.120;12.302;2024-02-28T12:16:41;101785.09;;;9.01;57.08
83492;BME280;73661;56.120;12.302;2024-02-28T12:19:11;101797.47;;;10.01;55.19
83492;BME280;73661;56.120;12.302;2024-02-28T12:21:38;101794.81;;;10.33;54.37
83492;BME280;73661;56.120;12.302;2024-02-28T12:24:07;101796.94;;;10.15;54.32
83492;BME280;73661;56.120;12.302;2024-02-28T12:26:34;101790.59;;;9.72;55.07
83492;BME280;73661;56.120;12.302;2024-02-28T12:29:00;101790.44;;;9.99;54.20
83492;BME280;73661;56.120;12.302;2024-02-28T12:31:27;101790.44;;;9.66;55.51
83492;BME280;73661;56.120;12.302;2024-02-28T12:33:53;101790.03;;;9.50;55.88
83492;BME280;73661;56.120;12.302;2024-02-28T12:36:20;101792.00;;;9.92;54.53
83492;BME280;73661;56.120;12.302;2024-02-28T12:38:46;101793.28;;;9.43;56.79
83492;BME280;73661;56.120;12.302;2024-02-28T12:41:12;101785.38;;;10.38;54.50
83492;BME280;73661;56.120;12.302;2024-02-28T12:43:38;101791.22;;;10.28;54.66